createdAt,value
2023-02-23T00:01:56.432Z,96.63
2023-02-23T00:04:42.159Z,96.77
2023-02-23T00:07:10.425Z,96.93
2023-02-23T00:09:37.950Z,96.60
2023-02-23T00:12:09.788Z,96.87
2023-02-23T00:14:38.119Z,96.66
2023-02-23T00:17:14.146Z,96.66
2023-02-23T00:19:43.813Z,96.32
2023-02-23T00:22:12.794Z,96.69
2023-02-23T00:24:42.527Z,96.74
2023-02-23T00:27:12.924Z,96.33
2023-02-23T00:29:40.610Z,96.25
2023-02-23T00:32:08.288Z,95.92
2023-02-23T00:34:36.907Z,96.48
2023-02-23T00:37:04.678Z,96.18
2023-02-23T00:39:32.147Z,96.13
2023-02-23T00:42:03.111Z,95.77
2023-02-23T00:44:32.288Z,94.94
2023-02-23T00:47:00.727Z,95.89
2023-02-23T00:49:28.182Z,95.88
2023-02-23T00:51:55.568Z,95.74
2023-02-23T00:54:23.151Z,95.52
2023-02-23T00:56:51.548Z,95.19
2023-02-23T00:59:19.727Z,95.09
2023-02-23T01:01:48.047Z,96.35
2023-02-23T01:04:16.716Z,96.97
2023-02-23T01:06:46.311Z,97.13
2023-02-23T01:09:16.967Z,96.15
2023-02-23T01:11:47.000Z,95.98
2023-02-23T01:14:15.603Z,95.58
2023-02-23T01:16:42.951Z,96.34
2023-02-23T01:19:11.141Z,96.89
2023-02-23T01:21:42.238Z,97.16
2023-02-23T01:24:10.605Z,97.01
2023-02-23T01:26:41.192Z,97.38
2023-02-23T01:29:12.129Z,96.42
2023-02-23T01:31:42.842Z,96.19
2023-02-23T01:34:13.526Z,96.23
2023-02-23T01:36:42.976Z,95.51
2023-02-23T01:39:15.881Z,95.61
2023-02-23T01:41:43.770Z,95.56
2023-02-23T01:44:14.001Z,95.80
2023-02-23T01:46:45.284Z,96.25
2023-02-23T01:49:20.277Z,95.33
2023-02-23T01:51:57.725Z,95.46
2023-02-23T01:54:31.086Z,95.79
2023-02-23T01:57:01.340Z,95.48
2023-02-23T01:59:39.061Z,95.79
2023-02-23T02:02:07.671Z,96.02
2023-02-23T02:04:43.896Z,95.50
2023-02-23T02:07:14.703Z,95.21
2023-02-23T02:10:03.445Z,95.19
2023-02-23T02:12:31.630Z,94.97
2023-02-23T02:15:00.588Z,95.12
2023-02-23T02:17:42.998Z,95.47
2023-02-23T02:20:37.431Z,95.65
2023-02-23T02:23:23.273Z,95.46
2023-02-23T02:25:56.706Z,95.63
2023-02-23T02:28:36.997Z,95.55
2023-02-23T02:31:31.118Z,95.61
2023-02-23T02:34:20.087Z,95.78
2023-02-23T02:37:07.314Z,95.52
2023-02-23T02:40:14.066Z,95.59
2023-02-23T02:43:21.266Z,96.82
2023-02-23T02:46:09.677Z,96.67
2023-02-23T02:48:49.086Z,96.24
2023-02-23T02:51:29.879Z,96.18
2023-02-23T02:54:24.106Z,96.17
2023-02-23T02:56:57.724Z,97.29
2023-02-23T02:59:46.239Z,97.06
2023-02-23T03:02:39.440Z,96.33
2023-02-23T03:05:33.489Z,96.80
2023-02-23T03:08:41.007Z,97.06
2023-02-23T03:11:30.169Z,97.01
2023-02-23T03:14:50.725Z,96.74
2023-02-23T03:18:06.258Z,96.33
2023-02-23T03:20:52.136Z,96.62
2023-02-23T03:23:53.729Z,96.51
2023-02-23T03:27:06.686Z,96.76
2023-02-23T03:30:02.923Z,97.11
2023-02-23T03:32:52.970Z,97.23
2023-02-23T03:36:03.322Z,97.46
2023-02-23T03:39:01.501Z,97.39
2023-02-23T03:41:49.053Z,96.52
2023-02-23T03:44:55.788Z,96.60
2023-02-23T03:47:46.236Z,96.44
2023-02-23T03:50:49.312Z,96.09
2023-02-23T03:53:43.349Z,96.63
2023-02-23T03:56:32.365Z,97.14
2023-02-23T03:59:21.483Z,96.40
2023-02-23T04:02:10.248Z,96.65
2023-02-23T04:04:59.137Z,97.45
2023-02-23T04:07:45.661Z,98.65
2023-02-23T04:10:31.616Z,98.60
2023-02-23T04:13:16.663Z,98.96
2023-02-23T04:15:57.386Z,98.67
2023-02-23T04:18:34.209Z,98.67
2023-02-23T04:21:02.572Z,98.60
2023-02-23T04:23:30.313Z,99.50
2023-02-23T04:25:57.875Z,99.58
2023-02-23T04:28:27.388Z,99.56
2023-02-23T04:30:54.880Z,99.42
2023-02-23T04:33:24.085Z,99.88
2023-02-23T04:35:55.039Z,100.00
2023-02-23T04:38:23.308Z,100.00
2023-02-23T04:40:50.918Z,100.00
2023-02-23T04:43:18.449Z,100.00
2023-02-23T04:45:46.066Z,100.00
2023-02-23T04:48:13.493Z,100.00
2023-02-23T04:50:40.888Z,99.74
2023-02-23T04:53:08.425Z,99.91
2023-02-23T04:55:35.871Z,99.95
2023-02-23T04:58:03.693Z,99.83
2023-02-23T05:00:31.597Z,100.00
2023-02-23T05:02:59.010Z,100.00
2023-02-23T05:05:26.418Z,100.00
2023-02-23T05:07:55.116Z,100.00
2023-02-23T05:10:22.627Z,99.87
2023-02-23T05:12:50.240Z,100.00
2023-02-23T05:15:17.664Z,100.00
2023-02-23T05:17:45.040Z,99.90
2023-02-23T05:20:13.804Z,99.55
2023-02-23T05:22:41.539Z,99.34
2023-02-23T05:25:10.313Z,99.40
2023-02-23T05:27:38.249Z,100.00
2023-02-23T05:30:07.893Z,100.00
2023-02-23T05:32:35.513Z,100.00
2023-02-23T05:35:03.653Z,100.00
2023-02-23T05:37:31.210Z,100.00
2023-02-23T05:39:58.608Z,100.00
2023-02-23T05:42:26.181Z,99.77
2023-02-23T05:44:53.526Z,99.68
2023-02-23T05:47:20.932Z,99.72
2023-02-23T05:49:48.358Z,99.39
2023-02-23T05:52:15.836Z,99.27
2023-02-23T05:54:43.448Z,99.39
2023-02-23T05:57:10.770Z,99.09
2023-02-23T05:59:38.980Z,98.76
2023-02-23T06:02:06.445Z,98.64
2023-02-23T06:04:34.456Z,98.85
2023-02-23T06:07:01.898Z,98.57
2023-02-23T06:09:29.228Z,98.71
2023-02-23T06:11:57.402Z,99.44
2023-02-23T06:14:24.684Z,99.56
2023-02-23T06:16:52.037Z,100.00
2023-02-23T06:19:19.494Z,100.00
2023-02-23T06:21:46.772Z,100.00
2023-02-23T06:24:14.190Z,100.00
2023-02-23T06:26:44.362Z,100.00
2023-02-23T06:29:12.868Z,100.00
2023-02-23T06:31:40.262Z,99.57
2023-02-23T06:34:07.691Z,99.04
2023-02-23T06:36:35.380Z,97.46
2023-02-23T06:39:03.782Z,96.40
2023-02-23T06:41:32.812Z,95.63
2023-02-23T06:44:00.107Z,95.36
2023-02-23T06:46:27.990Z,94.85
2023-02-23T06:48:56.840Z,95.07
2023-02-23T06:51:24.181Z,94.10
2023-02-23T06:53:53.423Z,93.71
2023-02-23T06:56:21.192Z,93.51
2023-02-23T06:58:48.883Z,92.72
2023-02-23T07:01:16.946Z,91.92
2023-02-23T07:03:44.653Z,92.42
2023-02-23T07:06:12.162Z,92.95
2023-02-23T07:08:39.485Z,93.16
2023-02-23T07:11:13.496Z,93.15
2023-02-23T07:13:41.442Z,93.72
2023-02-23T07:16:09.604Z,93.68
2023-02-23T07:18:37.225Z,94.18
2023-02-23T07:21:04.875Z,93.92
2023-02-23T07:23:32.243Z,93.47
2023-02-23T07:26:00.942Z,93.25
2023-02-23T07:28:28.894Z,93.31
2023-02-23T07:30:57.545Z,93.06
2023-02-23T07:33:25.934Z,93.53
2023-02-23T07:35:53.272Z,94.03
2023-02-23T07:38:20.634Z,94.06
2023-02-23T07:40:50.776Z,94.46
2023-02-23T07:43:20.732Z,94.22
2023-02-23T07:45:48.833Z,94.72
2023-02-23T07:48:16.120Z,94.11
2023-02-23T07:50:43.625Z,95.16
2023-02-23T07:53:11.480Z,95.43
2023-02-23T07:55:40.262Z,95.39
2023-02-23T07:58:08.422Z,95.87
2023-02-23T08:00:38.939Z,95.38
2023-02-23T08:03:07.356Z,95.69
2023-02-23T08:05:35.747Z,95.26
2023-02-23T08:08:03.185Z,95.40
2023-02-23T08:10:30.973Z,95.27
2023-02-23T08:13:00.124Z,95.66
2023-02-23T08:15:27.491Z,95.74
2023-02-23T08:17:54.865Z,96.08
2023-02-23T08:20:22.303Z,95.09
2023-02-23T08:22:56.845Z,94.33
2023-02-23T08:25:24.779Z,93.81
2023-02-23T08:27:52.793Z,93.04
2023-02-23T08:30:24.587Z,93.33
2023-02-23T08:32:52.116Z,93.10
2023-02-23T08:35:20.294Z,92.86
2023-02-23T08:37:47.802Z,93.30
2023-02-23T08:40:19.589Z,92.43
2023-02-23T08:42:49.148Z,91.61
2023-02-23T08:45:16.538Z,91.99
2023-02-23T08:47:43.856Z,91.78
2023-02-23T08:50:12.107Z,92.01
2023-02-23T08:52:40.773Z,91.84
2023-02-23T08:55:18.072Z,91.84
2023-02-23T08:57:45.416Z,92.15
2023-02-23T09:00:16.909Z,92.26
2023-02-23T09:02:47.228Z,91.94
2023-02-23T09:05:37.747Z,92.23
2023-02-23T09:08:18.121Z,91.64
2023-02-23T09:10:45.790Z,91.51
2023-02-23T09:13:13.837Z,91.41
2023-02-23T09:15:42.179Z,91.11
2023-02-23T09:18:14.875Z,90.67
2023-02-23T09:20:43.352Z,90.18
2023-02-23T09:23:12.366Z,90.26
2023-02-23T09:25:43.228Z,90.06
2023-02-23T09:28:18.195Z,89.82
2023-02-23T09:30:46.793Z,88.81
2023-02-23T09:33:14.385Z,88.94
2023-02-23T09:35:41.775Z,89.04
2023-02-23T09:38:09.666Z,89.41
2023-02-23T09:40:47.365Z,89.77
2023-02-23T09:43:24.295Z,89.61
2023-02-23T09:45:56.101Z,89.61
2023-02-23T09:48:27.675Z,89.79
2023-02-23T09:50:56.538Z,89.92
2023-02-23T09:53:40.638Z,90.11
2023-02-23T09:56:21.965Z,90.29
2023-02-23T09:58:50.404Z,89.81
2023-02-23T10:01:32.966Z,89.52
2023-02-23T10:04:20.388Z,89.47
2023-02-23T10:07:12.946Z,88.74
2023-02-23T10:10:02.845Z,89.25
2023-02-23T10:12:50.725Z,89.05
2023-02-23T10:15:28.968Z,89.54
2023-02-23T10:18:15.116Z,89.22
2023-02-23T10:20:50.995Z,88.99
2023-02-23T10:23:32.021Z,87.79
2023-02-23T10:26:02.320Z,88.18
2023-02-23T10:28:34.413Z,88.10
2023-02-23T10:31:07.280Z,87.09
2023-02-23T10:33:41.992Z,87.64
2023-02-23T10:36:19.294Z,87.03
2023-02-23T10:38:47.211Z,87.85
2023-02-23T10:41:15.129Z,87.61
2023-02-23T10:43:42.609Z,87.11
2023-02-23T10:46:21.296Z,87.10
2023-02-23T10:48:52.788Z,86.55
2023-02-23T10:51:25.353Z,86.51
2023-02-23T10:53:53.847Z,85.41
2023-02-23T10:56:23.367Z,85.68
2023-02-23T10:58:56.529Z,85.25
2023-02-23T11:02:00.420Z,86.36
2023-02-23T11:04:34.978Z,86.86
2023-02-23T11:07:23.185Z,86.74
2023-02-23T11:09:51.703Z,86.89
2023-02-23T11:12:29.719Z,86.57
2023-02-23T11:14:58.596Z,86.57
2023-02-23T11:17:35.231Z,86.61
2023-02-23T11:20:19.221Z,86.88
2023-02-23T11:22:47.107Z,86.92
2023-02-23T11:25:22.035Z,86.35
2023-02-23T11:27:51.698Z,86.17
2023-02-23T11:30:24.570Z,86.15
2023-02-23T11:32:56.398Z,84.89
2023-02-23T11:35:23.670Z,84.94
2023-02-23T11:37:50.951Z,85.42
2023-02-23T11:40:34.838Z,84.61
2023-02-23T11:43:05.169Z,84.97
2023-02-23T11:45:39.177Z,85.68
2023-02-23T11:48:06.925Z,85.75
2023-02-23T11:50:36.258Z,85.50
2023-02-23T11:53:14.640Z,85.10
2023-02-23T11:55:55.784Z,84.58
2023-02-23T11:58:35.962Z,83.93
2023-02-23T12:01:12.503Z,83.83
2023-02-23T12:03:50.024Z,82.48
2023-02-23T12:06:41.162Z,82.00
2023-02-23T12:09:26.717Z,83.18
2023-02-23T12:12:18.353Z,82.70
2023-02-23T12:14:55.844Z,83.07
2023-02-23T12:17:29.556Z,82.87
2023-02-23T12:20:29.620Z,82.10
2023-02-23T12:23:07.878Z,81.38
2023-02-23T12:25:43.139Z,80.74
2023-02-23T12:28:19.620Z,80.53
2023-02-23T12:31:01.978Z,80.92
2023-02-23T12:33:39.573Z,81.33
2023-02-23T12:36:31.841Z,80.63
2023-02-23T12:39:27.394Z,79.81
2023-02-23T12:42:07.499Z,79.21
2023-02-23T12:44:49.411Z,79.95
2023-02-23T12:47:33.924Z,79.84
2023-02-23T12:50:19.912Z,79.82
2023-02-23T12:52:53.787Z,79.20
2023-02-23T12:55:38.409Z,78.32
2023-02-23T12:58:13.044Z,78.71
2023-02-23T13:01:12.737Z,77.72
2023-02-23T13:04:07.510Z,78.08
2023-02-23T13:07:05.234Z,78.71
2023-02-23T13:09:49.298Z,78.36
2023-02-23T13:12:50.414Z,78.26
2023-02-23T13:15:39.671Z,78.59
2023-02-23T13:18:32.276Z,78.12
2023-02-23T13:21:11.487Z,78.35
2023-02-23T13:23:50.762Z,78.55
2023-02-23T13:26:21.025Z,78.67
2023-02-23T13:29:14.079Z,78.91
2023-02-23T13:31:43.679Z,78.56
2023-02-23T13:34:26.239Z,78.64
2023-02-23T13:36:54.816Z,77.88
2023-02-23T13:39:36.087Z,77.73
2023-02-23T13:42:45.361Z,77.97
2023-02-23T13:45:24.251Z,77.19
2023-02-23T13:48:28.830Z,77.63
2023-02-23T13:51:14.575Z,77.37
2023-02-23T13:53:47.915Z,77.29
2023-02-23T13:56:19.130Z,77.86
2023-02-23T13:58:51.585Z,78.39
2023-02-23T14:01:27.660Z,78.67
2023-02-23T14:03:58.141Z,78.83
2023-02-23T14:06:28.000Z,79.13
2023-02-23T14:09:24.397Z,79.03
2023-02-23T14:11:56.650Z,78.49
2023-02-23T14:14:33.203Z,78.67
2023-02-23T14:17:15.820Z,78.20
2023-02-23T14:20:13.302Z,77.86
2023-02-23T14:23:15.888Z,78.77
2023-02-23T14:25:52.352Z,78.31
2023-02-23T14:28:32.753Z,78.34
2023-02-23T14:31:23.280Z,78.55
2023-02-23T14:33:57.051Z,79.16
2023-02-23T14:36:24.423Z,77.91
2023-02-23T14:38:51.748Z,78.61
2023-02-23T14:41:30.091Z,78.56
2023-02-23T14:44:12.329Z,78.87
2023-02-23T14:47:01.611Z,78.63
2023-02-23T14:49:35.089Z,78.67
2023-02-23T14:52:09.023Z,78.94
2023-02-23T14:54:39.480Z,78.57
2023-02-23T14:57:18.160Z,78.61
2023-02-23T14:59:51.672Z,78.24
2023-02-23T15:02:24.710Z,78.78
2023-02-23T15:04:52.839Z,79.28
2023-02-23T15:07:31.186Z,78.97
2023-02-23T15:10:01.327Z,78.81
2023-02-23T15:12:35.048Z,79.25
2023-02-23T15:15:05.055Z,79.62
2023-02-23T15:17:34.491Z,79.95
2023-02-23T15:20:17.074Z,79.76
2023-02-23T15:22:51.900Z,79.69
2023-02-23T15:25:24.249Z,79.70
2023-02-23T15:27:52.299Z,79.89
2023-02-23T15:30:30.632Z,80.28
2023-02-23T15:33:12.386Z,80.24
2023-02-23T15:35:45.671Z,80.48
2023-02-23T15:38:41.733Z,80.55
2023-02-23T15:41:15.423Z,80.47
2023-02-23T15:43:43.543Z,80.30
2023-02-23T15:46:26.682Z,80.32
2023-02-23T15:48:58.917Z,80.65
2023-02-23T15:51:56.803Z,81.09
2023-02-23T15:54:32.484Z,81.63
2023-02-23T15:57:17.395Z,81.29
2023-02-23T15:59:47.413Z,81.57
2023-02-23T16:02:20.447Z,81.76
2023-02-23T16:04:53.828Z,81.39
2023-02-23T16:07:27.535Z,81.88
2023-02-23T16:10:18.948Z,82.03
2023-02-23T16:12:50.682Z,82.25
2023-02-23T16:15:24.534Z,82.37
2023-02-23T16:17:59.473Z,82.68
2023-02-23T16:20:42.610Z,83.15
2023-02-23T16:23:33.382Z,83.23
2023-02-23T16:26:11.726Z,83.15
2023-02-23T16:28:45.123Z,83.33
2023-02-23T16:31:20.062Z,83.36
2023-02-23T16:33:58.760Z,83.42
2023-02-23T16:36:41.104Z,83.64
2023-02-23T16:39:12.592Z,83.74
2023-02-23T16:41:40.059Z,83.72
2023-02-23T16:44:11.370Z,83.50
2023-02-23T16:46:55.589Z,84.07
2023-02-23T16:49:23.640Z,84.14
2023-02-23T16:51:51.654Z,84.15
2023-02-23T16:54:19.025Z,84.15
2023-02-23T16:56:47.949Z,84.19
2023-02-23T16:59:18.403Z,84.40
2023-02-23T17:01:46.682Z,84.30
2023-02-23T17:04:15.729Z,84.29
2023-02-23T17:06:44.158Z,84.37
2023-02-23T17:09:15.104Z,84.56
2023-02-23T17:11:43.957Z,84.29
2023-02-23T17:14:27.469Z,84.37
2023-02-23T17:16:54.941Z,84.55
2023-02-23T17:19:24.687Z,84.44
2023-02-23T17:21:53.414Z,84.60
2023-02-23T17:24:25.909Z,84.89
2023-02-23T17:26:54.292Z,84.89
2023-02-23T17:29:21.754Z,85.23
2023-02-23T17:31:49.675Z,84.96
2023-02-23T17:34:17.667Z,85.39
2023-02-23T17:36:45.128Z,85.38
2023-02-23T17:39:14.252Z,85.48
2023-02-23T17:41:41.743Z,85.32
2023-02-23T17:44:09.603Z,85.88
2023-02-23T17:46:37.993Z,86.01
2023-02-23T17:49:05.456Z,86.10
2023-02-23T17:51:32.849Z,86.56
2023-02-23T17:54:00.314Z,86.72
2023-02-23T17:56:28.292Z,87.14
2023-02-23T17:58:55.698Z,87.02
2023-02-23T18:01:23.473Z,87.37
2023-02-23T18:03:51.096Z,87.39
2023-02-23T18:06:19.820Z,87.69
2023-02-23T18:08:47.357Z,87.77
2023-02-23T18:11:16.512Z,88.26
2023-02-23T18:13:45.170Z,88.31
2023-02-23T18:16:13.738Z,88.60
2023-02-23T18:18:44.802Z,88.91
2023-02-23T18:21:15.137Z,89.25
2023-02-23T18:23:43.230Z,89.06
2023-02-23T18:26:13.864Z,89.53
2023-02-23T18:28:44.384Z,89.74
2023-02-23T18:31:17.208Z,90.09
2023-02-23T18:33:46.229Z,90.25
2023-02-23T18:36:18.054Z,90.60
2023-02-23T18:38:45.494Z,91.24
2023-02-23T18:41:13.023Z,92.41
2023-02-23T18:43:40.667Z,92.37
2023-02-23T18:46:09.639Z,92.01
2023-02-23T18:48:37.868Z,91.89
2023-02-23T18:51:07.126Z,91.73
2023-02-23T18:53:37.305Z,92.40
2023-02-23T18:56:06.078Z,92.21
2023-02-23T18:58:34.558Z,92.77
2023-02-23T19:01:02.068Z,92.49
2023-02-23T19:03:29.468Z,92.05
2023-02-23T19:05:59.014Z,92.44
2023-02-23T19:08:26.440Z,92.01
2023-02-23T19:10:53.985Z,92.21
2023-02-23T19:13:22.278Z,92.30
2023-02-23T19:15:50.020Z,91.90
2023-02-23T19:18:17.471Z,92.79
2023-02-23T19:20:44.868Z,92.22
2023-02-23T19:23:13.216Z,92.28
2023-02-23T19:25:40.603Z,91.86
2023-02-23T19:28:09.423Z,92.70
2023-02-23T19:30:38.037Z,93.15
2023-02-23T19:33:05.816Z,93.13
2023-02-23T19:35:33.357Z,93.10
2023-02-23T19:38:02.465Z,92.88
2023-02-23T19:40:30.933Z,92.59
2023-02-23T19:42:58.348Z,92.86
2023-02-23T19:45:26.015Z,94.02
2023-02-23T19:47:53.829Z,94.42
2023-02-23T19:50:21.902Z,94.62
2023-02-23T19:52:49.532Z,94.09
2023-02-23T19:55:16.932Z,93.81
2023-02-23T19:57:44.403Z,93.96
2023-02-23T20:00:13.293Z,93.71
2023-02-23T20:02:44.584Z,93.29
2023-02-23T20:05:14.137Z,93.23
2023-02-23T20:07:42.044Z,93.44
2023-02-23T20:10:16.440Z,93.52
2023-02-23T20:12:44.747Z,93.62
2023-02-23T20:15:14.893Z,94.61
2023-02-23T20:17:42.485Z,95.84
2023-02-23T20:20:11.306Z,95.65
2023-02-23T20:22:41.437Z,94.77
2023-02-23T20:25:12.589Z,94.85
2023-02-23T20:27:40.357Z,94.14
2023-02-23T20:30:08.366Z,93.80
2023-02-23T20:32:35.866Z,93.88
2023-02-23T20:35:03.694Z,95.44
2023-02-23T20:37:31.359Z,95.15
2023-02-23T20:39:59.659Z,94.54
2023-02-23T20:42:29.540Z,94.70
2023-02-23T20:44:57.083Z,93.97
2023-02-23T20:47:24.738Z,93.62
2023-02-23T20:49:52.148Z,93.35
2023-02-23T20:52:19.572Z,92.96
2023-02-23T20:54:47.474Z,92.87
2023-02-23T20:57:15.481Z,92.36
2023-02-23T20:59:44.753Z,92.32
2023-02-23T21:02:14.074Z,93.09
2023-02-23T21:04:44.258Z,92.85
2023-02-23T21:07:13.443Z,93.03
2023-02-23T21:09:40.941Z,92.56
2023-02-23T21:12:10.314Z,92.67
2023-02-23T21:14:37.689Z,93.13
2023-02-23T21:17:06.511Z,93.55
2023-02-23T21:19:34.027Z,92.91
2023-02-23T21:22:01.899Z,92.99
2023-02-23T21:24:33.773Z,93.79
2023-02-23T21:27:05.364Z,94.11
2023-02-23T21:29:32.673Z,94.70
2023-02-23T21:32:00.110Z,94.37
2023-02-23T21:34:27.620Z,93.81
2023-02-23T21:36:55.297Z,94.21
2023-02-23T21:39:22.979Z,93.93
2023-02-23T21:41:50.405Z,94.38
2023-02-23T21:44:17.785Z,94.69
2023-02-23T21:46:45.179Z,95.22
2023-02-23T21:49:12.687Z,94.99
2023-02-23T21:51:40.284Z,94.81
2023-02-23T21:54:07.887Z,94.04
2023-02-23T21:56:36.931Z,94.30
2023-02-23T21:59:06.005Z,93.80
2023-02-23T22:01:35.527Z,94.06
2023-02-23T22:04:04.463Z,94.41
2023-02-23T22:06:43.200Z,95.06
2023-02-23T22:09:11.639Z,95.53
2023-02-23T22:11:44.056Z,96.42
2023-02-23T22:14:11.916Z,95.81
2023-02-23T22:16:43.272Z,95.95
2023-02-23T22:19:12.059Z,96.75
2023-02-23T22:21:42.002Z,97.44
2023-02-23T22:24:14.068Z,97.59
2023-02-23T22:26:50.502Z,96.71
2023-02-23T22:29:18.071Z,96.50
2023-02-23T22:31:45.580Z,96.48
2023-02-23T22:34:13.061Z,97.36
2023-02-23T22:36:40.564Z,97.21
2023-02-23T22:39:13.136Z,97.17
2023-02-23T22:41:43.449Z,97.10
2023-02-23T22:44:13.125Z,97.33
2023-02-23T22:46:41.791Z,96.91
2023-02-23T22:49:15.983Z,97.49
2023-02-23T22:51:43.955Z,97.48
2023-02-23T22:54:35.717Z,97.10
2023-02-23T22:57:03.088Z,97.98
2023-02-23T22:59:30.650Z,97.90
2023-02-23T23:01:57.994Z,98.58
2023-02-23T23:04:28.202Z,98.47
2023-02-23T23:06:55.624Z,98.62
2023-02-23T23:09:23.059Z,98.84
2023-02-23T23:11:50.905Z,99.16
2023-02-23T23:14:19.393Z,99.52
2023-02-23T23:16:52.589Z,99.28
2023-02-23T23:19:24.284Z,98.32
2023-02-23T23:21:55.061Z,97.53
2023-02-23T23:24:24.720Z,98.11
2023-02-23T23:26:59.968Z,97.80
2023-02-23T23:29:32.442Z,97.93
2023-02-23T23:32:02.371Z,97.05
2023-02-23T23:34:33.434Z,97.63
2023-02-23T23:37:02.616Z,97.55
2023-02-23T23:39:29.903Z,97.32
2023-02-23T23:41:57.395Z,97.49
2023-02-23T23:44:29.105Z,97.70
2023-02-23T23:46:56.903Z,97.78
2023-02-23T23:49:27.779Z,97.58
2023-02-23T23:51:56.940Z,97.11
2023-02-23T23:54:30.876Z,97.15
2023-02-23T23:57:01.509Z,97.08
2023-02-23T23:59:29.829Z,97.24
